sensor_id;sensor_type;location;lat;lon;timestamp;pressure;altitude;pressure_sealevel;temperature;humidity
59104;BME280;51449;51.676;5.812;2023-03-03T00:00:37;102367.94;;;1.83;75.73
59104;BME280;51449;51.676;5.812;2023-03-03T00:03:00;102381.16;;;1.80;75.93
59104;BME280;51449;51.676;5.812;2023-03-03T00:05:26;102385.66;;;1.74;76.11
59104;BME280;51449;51.676;5.812;2023-03-03T00:07:47;102381.16;;;1.68;76.51
59104;BME280;51449;51.676;5.812;2023-03-03T00:10:10;102382.94;;;1.62;77.18
59104;BME280;51449;51.676;5.812;2023-03-03T00:12:34;102377.16;;;1.59;77.04
59104;BME280;51449;51.676;5.812;2023-03-03T00:14:57;102377.97;;;1.59;77.18
59104;BME280;51449;51.676;5.812;2023-03-03T00:17:26;102375.25;;;1.59;77.94
59104;BME280;51449;51.676;5.812;2023-03-03T00:19:49;102387.16;;;1.58;77.98
59104;BME280;51449;51.676;5.812;2023-03-03T00:22:35;102384.44;;;1.58;78.67
59104;BME280;51449;51.676;5.812;2023-03-03T00:24:58;102389.31;;;1.56;78.85
59104;BME280;51449;51.676;5.812;2023-03-03T00:27:30;102374.88;;;1.56;78.54
59104;BME280;51449;51.676;5.812;2023-03-03T00:29:58;102381.72;;;1.58;79.24
59104;BME280;51449;51.676;5.812;2023-03-03T00:32:43;102389.16;;;1.51;80.42
59104;BME280;51449;51.676;5.812;2023-03-03T00:35:24;102388.44;;;1.44;80.64
59104;BME280;51449;51.676;5.812;2023-03-03T00:37:54;102406.28;;;1.40;81.23
59104;BME280;51449;51.676;5.812;2023-03-03T00:40:23;102383.75;;;1.39;80.92
59104;BME280;51449;51.676;5.812;2023-03-03T00:42:55;102401.19;;;1.43;80.90
59104;BME280;51449;51.676;5.812;2023-03-03T00:45:27;102403.09;;;1.43;81.13
59104;BME280;51449;51.676;5.812;2023-03-03T00:48:55;102397.19;;;1.46;81.24
59104;BME280;51449;51.676;5.812;2023-03-03T00:50:59;102403.69;;;1.45;80.80
59104;BME280;51449;51.676;5.812;2023-03-03T00:53:25;102396.59;;;1.44;81.12
59104;BME280;51449;51.676;5.812;2023-03-03T00:55:50;102392.81;;;1.45;81.02
59104;BME280;51449;51.676;5.812;2023-03-03T00:58:13;102408.53;;;1.43;81.23
59104;BME280;51449;51.676;5.812;2023-03-03T01:00:39;102401.66;;;1.40;81.16
59104;BME280;51449;51.676;5.812;2023-03-03T01:03:07;102403.09;;;1.43;81.45
59104;BME280;51449;51.676;5.812;2023-03-03T01:05:30;102407.44;;;1.44;81.01
59104;BME280;51449;51.676;5.812;2023-03-03T01:07:51;102407.59;;;1.49;80.46
59104;BME280;51449;51.676;5.812;2023-03-03T01:10:13;102394.38;;;1.53;80.75
59104;BME280;51449;51.676;5.812;2023-03-03T01:12:35;102406.06;;;1.53;80.39
59104;BME280;51449;51.676;5.812;2023-03-03T01:14:59;102411.16;;;1.49;80.98
59104;BME280;51449;51.676;5.812;2023-03-03T01:17:21;102422.09;;;1.43;80.91
59104;BME280;51449;51.676;5.812;2023-03-03T01:19:43;102423.03;;;1.37;81.15
59104;BME280;51449;51.676;5.812;2023-03-03T01:22:04;102423.13;;;1.30;81.12
59104;BME280;51449;51.676;5.812;2023-03-03T01:24:26;102428.19;;;1.26;81.53
59104;BME280;51449;51.676;5.812;2023-03-03T01:26:48;102425.00;;;1.18;82.27
59104;BME280;51449;51.676;5.812;2023-03-03T01:29:09;102420.38;;;1.18;82.53
59104;BME280;51449;51.676;5.812;2023-03-03T01:31:31;102416.75;;;1.24;82.12
59104;BME280;51449;51.676;5.812;2023-03-03T01:33:53;102421.94;;;1.26;81.86
59104;BME280;51449;51.676;5.812;2023-03-03T01:36:15;102409.56;;;1.30;81.88
59104;BME280;51449;51.676;5.812;2023-03-03T01:38:37;102410.50;;;1.36;81.73
59104;BME280;51449;51.676;5.812;2023-03-03T01:41:00;102409.47;;;1.37;81.36
59104;BME280;51449;51.676;5.812;2023-03-03T01:43:25;102415.34;;;1.34;81.89
59104;BME280;51449;51.676;5.812;2023-03-03T01:48:15;102409.00;;;1.40;82.03
59104;BME280;51449;51.676;5.812;2023-03-03T01:53:16;102419.03;;;1.39;81.71
59104;BME280;51449;51.676;5.812;2023-03-03T01:55:42;102419.13;;;1.33;82.35
59104;BME280;51449;51.676;5.812;2023-03-03T01:58:25;102421.63;;;1.34;82.12
59104;BME280;51449;51.676;5.812;2023-03-03T02:00:54;102418.19;;;1.39;81.78
59104;BME280;51449;51.676;5.812;2023-03-03T02:03:22;102419.59;;;1.41;81.85
59104;BME280;51449;51.676;5.812;2023-03-03T02:05:45;102415.38;;;1.45;81.59
59104;BME280;51449;51.676;5.812;2023-03-03T02:08:08;102416.56;;;1.49;81.60
59104;BME280;51449;51.676;5.812;2023-03-03T02:10:36;102413.59;;;1.51;81.05
59104;BME280;51449;51.676;5.812;2023-03-03T02:12:57;102427.34;;;1.56;81.10
59104;BME280;51449;51.676;5.812;2023-03-03T02:15:23;102433.22;;;1.53;81.38
59104;BME280;51449;51.676;5.812;2023-03-03T02:17:51;102423.75;;;1.44;81.97
59104;BME280;51449;51.676;5.812;2023-03-03T02:20:27;102428.34;;;1.43;81.83
59104;BME280;51449;51.676;5.812;2023-03-03T02:23:21;102422.47;;;1.46;81.72
59104;BME280;51449;51.676;5.812;2023-03-03T02:26:06;102421.28;;;1.42;81.59
59104;BME280;51449;51.676;5.812;2023-03-03T02:28:32;102415.84;;;1.42;81.43
59104;BME280;51449;51.676;5.812;2023-03-03T02:30:59;102425.41;;;1.45;81.67
59104;BME280;51449;51.676;5.812;2023-03-03T02:33:22;102429.19;;;1.44;81.65
59104;BME280;51449;51.676;5.812;2023-03-03T02:35:44;102417.28;;;1.45;82.25
59104;BME280;51449;51.676;5.812;2023-03-03T02:38:24;102426.47;;;1.44;82.27
59104;BME280;51449;51.676;5.812;2023-03-03T02:43:59;102427.19;;;1.39;82.29
59104;BME280;51449;51.676;5.812;2023-03-03T02:46:26;102423.75;;;1.44;82.37
59104;BME280;51449;51.676;5.812;2023-03-03T02:48:49;102426.03;;;1.47;81.94
59104;BME280;51449;51.676;5.812;2023-03-03T02:51:11;102421.41;;;1.47;82.06
59104;BME280;51449;51.676;5.812;2023-03-03T02:53:33;102422.47;;;1.46;82.28
59104;BME280;51449;51.676;5.812;2023-03-03T02:55:55;102421.41;;;1.47;81.85
59104;BME280;51449;51.676;5.812;2023-03-03T02:58:18;102420.81;;;1.45;81.97
59104;BME280;51449;51.676;5.812;2023-03-03T03:00:40;102427.91;;;1.46;81.57
59104;BME280;51449;51.676;5.812;2023-03-03T03:03:02;102417.75;;;1.42;81.58
59104;BME280;51449;51.676;5.812;2023-03-03T03:05:25;102421.50;;;1.41;82.11
59104;BME280;51449;51.676;5.812;2023-03-03T03:07:47;102417.38;;;1.38;81.80
59104;BME280;51449;51.676;5.812;2023-03-03T03:10:10;102422.56;;;1.40;82.21
59104;BME280;51449;51.676;5.812;2023-03-03T03:12:33;102421.28;;;1.42;82.21
59104;BME280;51449;51.676;5.812;2023-03-03T03:14:55;102419.59;;;1.41;81.52
59104;BME280;51449;51.676;5.812;2023-03-03T03:17:16;102422.69;;;1.45;81.38
59104;BME280;51449;51.676;5.812;2023-03-03T03:19:39;102422.69;;;1.45;81.98
59104;BME280;51449;51.676;5.812;2023-03-03T03:22:01;102426.25;;;1.45;81.43
59104;BME280;51449;51.676;5.812;2023-03-03T03:24:25;102429.19;;;1.44;82.10
59104;BME280;51449;51.676;5.812;2023-03-03T03:26:51;102428.72;;;1.47;81.84
59104;BME280;51449;51.676;5.812;2023-03-03T03:29:13;102421.63;;;1.46;81.94
59104;BME280;51449;51.676;5.812;2023-03-03T03:31:35;102424.81;;;1.43;81.86
59104;BME280;51449;51.676;5.812;2023-03-03T03:33:57;102423.75;;;1.44;82.04
59104;BME280;51449;51.676;5.812;2023-03-03T03:36:22;102422.69;;;1.45;81.98
59104;BME280;51449;51.676;5.812;2023-03-03T03:38:44;102430.25;;;1.43;82.27
59104;BME280;51449;51.676;5.812;2023-03-03T03:41:06;102434.03;;;1.42;81.86
59104;BME280;51449;51.676;5.812;2023-03-03T03:43:29;102426.94;;;1.41;82.09
59104;BME280;51449;51.676;5.812;2023-03-03T03:45:52;102430.63;;;1.46;82.03
59104;BME280;51449;51.676;5.812;2023-03-03T03:48:13;102434.75;;;1.49;82.26
59104;BME280;51449;51.676;5.812;2023-03-03T03:50:37;102431.19;;;1.48;82.44
59104;BME280;51449;51.676;5.812;2023-03-03T03:53:00;102441.03;;;1.49;81.52
59104;BME280;51449;51.676;5.812;2023-03-03T03:55:23;102434.91;;;1.54;81.90
59104;BME280;51449;51.676;5.812;2023-03-03T03:57:45;102433.59;;;1.57;81.53
59104;BME280;51449;51.676;5.812;2023-03-03T04:00:08;102434.75;;;1.61;81.53
59104;BME280;51449;51.676;5.812;2023-03-03T04:02:38;102438.06;;;1.63;81.44
59104;BME280;51449;51.676;5.812;2023-03-03T04:05:04;102435.34;;;1.63;81.66
59104;BME280;51449;51.676;5.812;2023-03-03T04:07:27;102431.00;;;1.62;81.92
59104;BME280;51449;51.676;5.812;2023-03-03T04:09:48;102427.69;;;1.60;81.68
59104;BME280;51449;51.676;5.812;2023-03-03T04:12:10;102438.06;;;1.63;81.86
59104;BME280;51449;51.676;5.812;2023-03-03T04:14:33;102435.13;;;1.64;82.09
59104;BME280;51449;51.676;5.812;2023-03-03T04:16:55;102435.63;;;1.61;81.72
59104;BME280;51449;51.676;5.812;2023-03-03T04:19:18;102433.72;;;1.62;81.81
59104;BME280;51449;51.676;5.812;2023-03-03T04:21:41;102437.72;;;1.59;81.61
59104;BME280;51449;51.676;5.812;2023-03-03T04:24:03;102433.94;;;1.60;81.93
59104;BME280;51449;51.676;5.812;2023-03-03T04:26:25;102437.47;;;1.61;81.57
59104;BME280;51449;51.676;5.812;2023-03-03T04:28:47;102428.88;;;1.64;81.29
59104;BME280;51449;51.676;5.812;2023-03-03T04:31:09;102431.72;;;1.69;81.45
59104;BME280;51449;51.676;5.812;2023-03-03T04:33:31;102433.75;;;1.74;80.92
59104;BME280;51449;51.676;5.812;2023-03-03T04:35:54;102427.81;;;1.77;81.29
59104;BME280;51449;51.676;5.812;2023-03-03T04:38:16;102431.75;;;1.81;81.00
59104;BME280;51449;51.676;5.812;2023-03-03T04:40:40;102434.31;;;1.87;81.04
59104;BME280;51449;51.676;5.812;2023-03-03T04:43:02;102431.16;;;1.90;80.62
59104;BME280;51449;51.676;5.812;2023-03-03T04:45:24;102435.84;;;1.95;80.62
59104;BME280;51449;51.676;5.812;2023-03-03T04:47:46;102428.28;;;1.97;80.34
59104;BME280;51449;51.676;5.812;2023-03-03T04:50:08;102429.59;;;1.95;80.81
59104;BME280;51449;51.676;5.812;2023-03-03T04:52:31;102427.69;;;1.95;80.77
59104;BME280;51449;51.676;5.812;2023-03-03T04:54:53;102430.91;;;1.92;80.41
59104;BME280;51449;51.676;5.812;2023-03-03T04:57:14;102437.41;;;1.91;80.51
59104;BME280;51449;51.676;5.812;2023-03-03T04:59:37;102437.41;;;1.91;80.66
59104;BME280;51449;51.676;5.812;2023-03-03T05:01:58;102445.91;;;1.95;80.76
59104;BME280;51449;51.676;5.812;2023-03-03T05:04:20;102444.50;;;1.92;80.55
59104;BME280;51449;51.676;5.812;2023-03-03T05:06:43;102448.88;;;1.93;80.93
59104;BME280;51449;51.676;5.812;2023-03-03T05:09:04;102452.16;;;1.95;80.62
59104;BME280;51449;51.676;5.812;2023-03-03T05:11:26;102453.84;;;1.96;80.61
59104;BME280;51449;51.676;5.812;2023-03-03T05:13:48;102448.75;;;2.00;80.69
59104;BME280;51449;51.676;5.812;2023-03-03T05:16:10;102446.50;;;1.97;80.48
59104;BME280;51449;51.676;5.812;2023-03-03T05:18:31;102453.63;;;1.98;80.45
59104;BME280;51449;51.676;5.812;2023-03-03T05:20:54;102455.97;;;1.94;79.92
59104;BME280;51449;51.676;5.812;2023-03-03T05:23:16;102449.94;;;1.92;80.54
59104;BME280;51449;51.676;5.812;2023-03-03T05:25:40;102440.94;;;1.91;80.01
59104;BME280;51449;51.676;5.812;2023-03-03T05:28:02;102457.47;;;1.90;79.87
59104;BME280;51449;51.676;5.812;2023-03-03T05:30:25;102449.81;;;1.87;79.99
59104;BME280;51449;51.676;5.812;2023-03-03T05:32:46;102454.19;;;1.88;79.99
59104;BME280;51449;51.676;5.812;2023-03-03T05:35:08;102452.03;;;1.90;79.91
59104;BME280;51449;51.676;5.812;2023-03-03T05:37:30;102451.34;;;1.95;79.56
59104;BME280;51449;51.676;5.812;2023-03-03T05:39:52;102441.66;;;1.99;79.83
59104;BME280;51449;51.676;5.812;2023-03-03T05:42:14;102450.75;;;2.04;79.47
59104;BME280;51449;51.676;5.812;2023-03-03T05:44:35;102446.28;;;2.10;78.97
59104;BME280;51449;51.676;5.812;2023-03-03T05:46:57;102450.06;;;2.09;79.17
59104;BME280;51449;51.676;5.812;2023-03-03T05:49:19;102449.13;;;2.15;79.51
59104;BME280;51449;51.676;5.812;2023-03-03T05:51:41;102450.53;;;2.18;79.13
59104;BME280;51449;51.676;5.812;2023-03-03T05:54:02;102439.78;;;2.23;79.11
59104;BME280;51449;51.676;5.812;2023-03-03T05:56:24;102445.53;;;2.26;79.15
59104;BME280;51449;51.676;5.812;2023-03-03T05:58:46;102446.97;;;2.29;79.12
59104;BME280;51449;51.676;5.812;2023-03-03T06:01:08;102453.25;;;2.29;78.59
59104;BME280;51449;51.676;5.812;2023-03-03T06:03:29;102446.13;;;2.28;78.89
59104;BME280;51449;51.676;5.812;2023-03-03T06:05:52;102452.28;;;2.24;78.96
59104;BME280;51449;51.676;5.812;2023-03-03T06:08:14;102463.41;;;2.22;79.11
59104;BME280;51449;51.676;5.812;2023-03-03T06:10:35;102460.94;;;2.21;79.44
59104;BME280;51449;51.676;5.812;2023-03-03T06:13:00;102463.75;;;2.26;79.42
59104;BME280;51449;51.676;5.812;2023-03-03T06:15:22;102464.94;;;2.30;79.12
59104;BME280;51449;51.676;5.812;2023-03-03T06:17:44;102469.91;;;2.33;78.91
59104;BME280;51449;51.676;5.812;2023-03-03T06:20:06;102476.16;;;2.33;78.65
59104;BME280;51449;51.676;5.812;2023-03-03T06:22:28;102477.84;;;2.34;78.91
59104;BME280;51449;51.676;5.812;2023-03-03T06:24:50;102474.28;;;2.34;78.53
59104;BME280;51449;51.676;5.812;2023-03-03T06:27:12;102480.91;;;2.38;78.45
59104;BME280;51449;51.676;5.812;2023-03-03T06:29:34;102482.31;;;2.41;79.25
59104;BME280;51449;51.676;5.812;2023-03-03T06:31:56;102485.03;;;2.41;78.74
59104;BME280;51449;51.676;5.812;2023-03-03T06:34:18;102481.50;;;2.40;79.33
59104;BME280;51449;51.676;5.812;2023-03-03T06:36:40;102489.66;;;2.40;78.93
59104;BME280;51449;51.676;5.812;2023-03-03T06:39:02;102496.03;;;2.46;78.64
59104;BME280;51449;51.676;5.812;2023-03-03T06:41:24;102498.63;;;2.52;78.98
59104;BME280;51449;51.676;5.812;2023-03-03T06:43:46;102498.75;;;2.57;78.46
59104;BME280;51449;51.676;5.812;2023-03-03T06:46:07;102511.03;;;2.60;78.46
59104;BME280;51449;51.676;5.812;2023-03-03T06:48:30;102508.22;;;2.55;78.83
59104;BME280;51449;51.676;5.812;2023-03-03T06:50:54;102509.63;;;2.57;78.83
59104;BME280;51449;51.676;5.812;2023-03-03T06:53:17;102504.28;;;2.63;78.51
59104;BME280;51449;51.676;5.812;2023-03-03T06:55:39;102509.13;;;2.61;78.70
59104;BME280;51449;51.676;5.812;2023-03-03T06:58:10;102502.38;;;2.63;77.99
59104;BME280;51449;51.676;5.812;2023-03-03T07:00:35;102515.78;;;2.65;78.31
59104;BME280;51449;51.676;5.812;2023-03-03T07:03:00;102512.09;;;2.71;78.20
59104;BME280;51449;51.676;5.812;2023-03-03T07:05:29;102517.88;;;2.74;78.26
59104;BME280;51449;51.676;5.812;2023-03-03T07:07:56;102513.13;;;2.82;78.15
59104;BME280;51449;51.676;5.812;2023-03-03T07:10:22;102516.19;;;2.85;77.63
59104;BME280;51449;51.676;5.812;2023-03-03T07:12:49;102520.34;;;2.88;78.14
59104;BME280;51449;51.676;5.812;2023-03-03T07:15:12;102522.81;;;2.89;77.38
59104;BME280;51449;51.676;5.812;2023-03-03T07:17:43;102525.06;;;2.92;77.40
59104;BME280;51449;51.676;5.812;2023-03-03T07:20:21;102518.91;;;2.97;77.42
59104;BME280;51449;51.676;5.812;2023-03-03T07:22:46;102535.22;;;2.97;77.32
59104;BME280;51449;51.676;5.812;2023-03-03T07:25:33;102532.38;;;3.04;77.49
59104;BME280;51449;51.676;5.812;2023-03-03T07:28:19;102531.44;;;3.10;76.91
59104;BME280;51449;51.676;5.812;2023-03-03T07:30:49;102535.56;;;3.12;77.03
59104;BME280;51449;51.676;5.812;2023-03-03T07:33:42;102534.59;;;3.18;76.70
59104;BME280;51449;51.676;5.812;2023-03-03T07:36:23;102538.97;;;3.19;76.36
59104;BME280;51449;51.676;5.812;2023-03-03T07:38:54;102543.56;;;3.19;76.65
59104;BME280;51449;51.676;5.812;2023-03-03T07:41:20;102546.06;;;3.20;76.40
59104;BME280;51449;51.676;5.812;2023-03-03T07:46:35;102553.88;;;3.17;76.23
59104;BME280;51449;51.676;5.812;2023-03-03T07:49:15;102555.19;;;3.14;76.34
59104;BME280;51449;51.676;5.812;2023-03-03T07:51:44;102556.28;;;3.13;76.33
59104;BME280;51449;51.676;5.812;2023-03-03T07:56:49;102566.34;;;3.13;75.94
59104;BME280;51449;51.676;5.812;2023-03-03T07:59:21;102560.31;;;3.11;75.69
59104;BME280;51449;51.676;5.812;2023-03-03T08:01:54;102562.34;;;3.04;76.14
59104;BME280;51449;51.676;5.812;2023-03-03T08:04:45;102564.47;;;3.02;75.93
59104;BME280;51449;51.676;5.812;2023-03-03T08:07:15;102558.53;;;3.05;75.74
59104;BME280;51449;51.676;5.812;2023-03-03T08:09:48;102558.19;;;3.13;76.23
59104;BME280;51449;51.676;5.812;2023-03-03T08:12:39;102567.03;;;3.20;75.84
59104;BME280;51449;51.676;5.812;2023-03-03T08:15:23;102572.81;;;3.24;76.02
59104;BME280;51449;51.676;5.812;2023-03-03T08:17:49;102569.28;;;3.23;75.86
59104;BME280;51449;51.676;5.812;2023-03-03T08:23:02;102587.75;;;3.21;76.12
59104;BME280;51449;51.676;5.812;2023-03-03T08:25:24;102580.16;;;3.23;76.10
59104;BME280;51449;51.676;5.812;2023-03-03T08:27:46;102576.13;;;3.26;76.15
59104;BME280;51449;51.676;5.812;2023-03-03T08:30:08;102584.19;;;3.32;75.97
59104;BME280;51449;51.676;5.812;2023-03-03T08:32:31;102593.28;;;3.38;75.97
59104;BME280;51449;51.676;5.812;2023-03-03T08:34:52;102593.03;;;3.39;75.87
59104;BME280;51449;51.676;5.812;2023-03-03T08:37:14;102596.91;;;3.43;76.02
59104;BME280;51449;51.676;5.812;2023-03-03T08:39:36;102595.97;;;3.50;75.61
59104;BME280;51449;51.676;5.812;2023-03-03T08:41:58;102592.75;;;3.53;75.62
59104;BME280;51449;51.676;5.812;2023-03-03T08:44:19;102600.69;;;3.54;75.59
59104;BME280;51449;51.676;5.812;2023-03-03T08:46:41;102594.75;;;3.57;75.16
59104;BME280;51449;51.676;5.812;2023-03-03T08:49:04;102594.97;;;3.56;74.78
59104;BME280;51449;51.676;5.812;2023-03-03T08:51:27;102601.59;;;3.60;74.61
59104;BME280;51449;51.676;5.812;2023-03-03T08:53:49;102595.44;;;3.64;74.88
59104;BME280;51449;51.676;5.812;2023-03-03T08:56:10;102602.19;;;3.62;74.67
59104;BME280;51449;51.676;5.812;2023-03-03T08:58:32;102602.53;;;3.65;74.23
59104;BME280;51449;51.676;5.812;2023-03-03T09:00:57;102600.97;;;3.70;74.64
59104;BME280;51449;51.676;5.812;2023-03-03T09:03:19;102602.88;;;3.69;73.97
59104;BME280;51449;51.676;5.812;2023-03-03T09:05:41;102604.53;;;3.70;73.65
59104;BME280;51449;51.676;5.812;2023-03-03T09:08:04;102598.97;;;3.65;73.45
59104;BME280;51449;51.676;5.812;2023-03-03T09:10:26;102613.56;;;3.71;73.83
59104;BME280;51449;51.676;5.812;2023-03-03T09:12:50;102604.97;;;3.79;73.80
59104;BME280;51449;51.676;5.812;2023-03-03T09:15:20;102612.00;;;3.92;73.26
59104;BME280;51449;51.676;5.812;2023-03-03T09:17:45;102607.16;;;3.94;73.29
59104;BME280;51449;51.676;5.812;2023-03-03T09:20:21;102609.47;;;4.02;72.91
59104;BME280;51449;51.676;5.812;2023-03-03T09:22:53;102614.78;;;4.08;73.27
59104;BME280;51449;51.676;5.812;2023-03-03T09:25:32;102614.03;;;4.13;73.06
59104;BME280;51449;51.676;5.812;2023-03-03T09:27:57;102613.44;;;4.11;72.04
59104;BME280;51449;51.676;5.812;2023-03-03T09:32:46;102615.88;;;4.07;72.08
59104;BME280;51449;51.676;5.812;2023-03-03T09:35:35;102621.63;;;4.11;71.88
59104;BME280;51449;51.676;5.812;2023-03-03T09:37:59;102617.75;;;4.07;71.68
59104;BME280;51449;51.676;5.812;2023-03-03T09:40:54;102619.00;;;4.16;72.36
59104;BME280;51449;51.676;5.812;2023-03-03T09:47:34;102622.25;;;4.30;72.07
59104;BME280;51449;51.676;5.812;2023-03-03T09:50:28;102627.44;;;4.32;71.92
59104;BME280;51449;51.676;5.812;2023-03-03T09:52:51;102621.50;;;4.35;72.03
59104;BME280;51449;51.676;5.812;2023-03-03T09:55:48;102623.81;;;4.43;71.37
59104;BME280;51449;51.676;5.812;2023-03-03T10:04:14;102634.41;;;4.56;71.68
59104;BME280;51449;51.676;5.812;2023-03-03T10:13:21;102629.16;;;4.88;71.21
59104;BME280;51449;51.676;5.812;2023-03-03T10:16:04;102626.56;;;4.99;70.74
59104;BME280;51449;51.676;5.812;2023-03-03T10:22:17;102624.94;;;4.98;70.82
59104;BME280;51449;51.676;5.812;2023-03-03T10:27:46;102625.13;;;5.13;71.03
59104;BME280;51449;51.676;5.812;2023-03-03T10:30:43;102630.78;;;5.28;70.42
59104;BME280;51449;51.676;5.812;2023-03-03T10:39:29;102637.66;;;5.53;68.89
59104;BME280;51449;51.676;5.812;2023-03-03T10:42:03;102638.75;;;5.52;68.96
59104;BME280;51449;51.676;5.812;2023-03-03T10:54:08;102637.47;;;5.60;68.32
59104;BME280;51449;51.676;5.812;2023-03-03T10:56:44;102632.00;;;5.60;68.44
59104;BME280;51449;51.676;5.812;2023-03-03T11:02:21;102627.34;;;5.60;68.55
59104;BME280;51449;51.676;5.812;2023-03-03T11:04:57;102629.66;;;5.68;68.28
59104;BME280;51449;51.676;5.812;2023-03-03T11:07:50;102628.03;;;5.72;67.94
59104;BME280;51449;51.676;5.812;2023-03-03T11:13:54;102635.81;;;5.81;67.93
59104;BME280;51449;51.676;5.812;2023-03-03T11:16:47;102629.53;;;5.85;67.72
59104;BME280;51449;51.676;5.812;2023-03-03T11:19:28;102622.56;;;5.94;67.56
59104;BME280;51449;51.676;5.812;2023-03-03T11:22:32;102618.53;;;6.02;67.35
59104;BME280;51449;51.676;5.812;2023-03-03T11:25:29;102628.13;;;6.05;67.59
59104;BME280;51449;51.676;5.812;2023-03-03T11:28:19;102627.69;;;6.13;66.87
59104;BME280;51449;51.676;5.812;2023-03-03T11:31:44;102609.25;;;6.35;66.81
59104;BME280;51449;51.676;5.812;2023-03-03T11:36:38;102614.19;;;6.71;65.49
59104;BME280;51449;51.676;5.812;2023-03-03T11:39:24;102608.44;;;6.72;65.34
59104;BME280;51449;51.676;5.812;2023-03-03T11:45:00;102604.50;;;6.95;65.11
59104;BME280;51449;51.676;5.812;2023-03-03T11:47:35;102601.00;;;7.10;65.27
59104;BME280;51449;51.676;5.812;2023-03-03T11:50:04;102604.34;;;7.17;63.99
59104;BME280;51449;51.676;5.812;2023-03-03T11:52:50;102603.28;;;7.34;64.49
59104;BME280;51449;51.676;5.812;2023-03-03T11:55:32;102605.56;;;7.52;63.90
59104;BME280;51449;51.676;5.812;2023-03-03T11:58:13;102599.78;;;7.48;62.63
59104;BME280;51449;51.676;5.812;2023-03-03T12:03:58;102598.41;;;7.46;62.42
59104;BME280;51449;51.676;5.812;2023-03-03T12:12:00;102588.75;;;7.33;62.64
59104;BME280;51449;51.676;5.812;2023-03-03T12:22:41;102580.91;;;7.78;62.27
59104;BME280;51449;51.676;5.812;2023-03-03T12:25:53;102569.69;;;8.00;61.69
59104;BME280;51449;51.676;5.812;2023-03-03T12:28:33;102571.91;;;8.18;61.15
59104;BME280;51449;51.676;5.812;2023-03-03T12:34:12;102562.34;;;8.46;59.72
59104;BME280;51449;51.676;5.812;2023-03-03T12:37:19;102576.06;;;8.51;59.89
59104;BME280;51449;51.676;5.812;2023-03-03T12:48:07;102563.41;;;8.30;59.68
59104;BME280;51449;51.676;5.812;2023-03-03T12:50:41;102549.94;;;8.33;60.16
59104;BME280;51449;51.676;5.812;2023-03-03T13:02:04;102539.19;;;8.73;59.53
59104;BME280;51449;51.676;5.812;2023-03-03T13:05:20;102542.47;;;8.80;59.26
59104;BME280;51449;51.676;5.812;2023-03-03T13:10:54;102541.41;;;8.71;59.02
59104;BME280;51449;51.676;5.812;2023-03-03T13:13:37;102537.81;;;8.75;58.78
59104;BME280;51449;51.676;5.812;2023-03-03T13:16:11;102541.91;;;8.88;58.97
59104;BME280;51449;51.676;5.812;2023-03-03T13:18:55;102532.53;;;8.94;58.66
59104;BME280;51449;51.676;5.812;2023-03-03T13:21:47;102531.38;;;9.06;59.20
59104;BME280;51449;51.676;5.812;2023-03-03T13:24:22;102520.59;;;9.14;59.07
59104;BME280;51449;51.676;5.812;2023-03-03T13:27:14;102524.38;;;9.29;58.51
59104;BME280;51449;51.676;5.812;2023-03-03T13:29:42;102523.31;;;9.30;57.40
59104;BME280;51449;51.676;5.812;2023-03-03T13:32:20;102523.00;;;9.31;57.75
59104;BME280;51449;51.676;5.812;2023-03-03T13:35:08;102526.84;;;9.35;57.53
59104;BME280;51449;51.676;5.812;2023-03-03T13:37:44;102520.72;;;9.43;57.55
59104;BME280;51449;51.676;5.812;2023-03-03T13:40:16;102523.75;;;9.47;57.34
59104;BME280;51449;51.676;5.812;2023-03-03T13:42:56;102524.03;;;9.46;57.24
59104;BME280;51449;51.676;5.812;2023-03-03T13:48:38;102523.97;;;9.51;56.98
59104;BME280;51449;51.676;5.812;2023-03-03T13:57:13;102513.84;;;9.85;56.03
59104;BME280;51449;51.676;5.812;2023-03-03T14:02:40;102517.44;;;9.86;55.83
59104;BME280;51449;51.676;5.812;2023-03-03T14:05:13;102518.31;;;9.76;55.85
59104;BME280;51449;51.676;5.812;2023-03-03T14:16:55;102508.09;;;9.42;55.08
59104;BME280;51449;51.676;5.812;2023-03-03T14:19:27;102503.16;;;9.39;55.10
59104;BME280;51449;51.676;5.812;2023-03-03T14:22:29;102505.63;;;9.41;55.77
59104;BME280;51449;51.676;5.812;2023-03-03T14:27:38;102500.22;;;9.65;55.93
59104;BME280;51449;51.676;5.812;2023-03-03T14:35:31;102490.56;;;9.68;55.52
59104;BME280;51449;51.676;5.812;2023-03-03T14:38:16;102494.19;;;9.68;55.55
59104;BME280;51449;51.676;5.812;2023-03-03T14:40:42;102494.41;;;9.72;55.15
59104;BME280;51449;51.676;5.812;2023-03-03T14:43:32;102485.47;;;9.90;54.75
59104;BME280;51449;51.676;5.812;2023-03-03T14:46:29;102487.53;;;10.03;53.74
59104;BME280;51449;51.676;5.812;2023-03-03T14:48:53;102481.75;;;10.05;54.28
59104;BME280;51449;51.676;5.812;2023-03-03T14:51:25;102479.50;;;10.07;53.05
59104;BME280;51449;51.676;5.812;2023-03-03T14:53:50;102480.69;;;10.01;53.21
59104;BME280;51449;51.676;5.812;2023-03-03T14:56:26;102480.19;;;9.94;52.43
59104;BME280;51449;51.676;5.812;2023-03-03T14:58:52;102477.53;;;9.83;52.56
59104;BME280;51449;51.676;5.812;2023-03-03T15:01:34;102475.69;;;9.74;52.92
59104;BME280;51449;51.676;5.812;2023-03-03T15:11:54;102465.34;;;9.55;53.20
59104;BME280;51449;51.676;5.812;2023-03-03T15:14:19;102460.19;;;9.49;53.64
59104;BME280;51449;51.676;5.812;2023-03-03T15:16:46;102462.41;;;9.47;53.44
59104;BME280;51449;51.676;5.812;2023-03-03T15:19:36;102466.00;;;9.42;52.83
59104;BME280;51449;51.676;5.812;2023-03-03T15:23:23;102456.41;;;9.39;53.43
59104;BME280;51449;51.676;5.812;2023-03-03T15:34:04;102440.75;;;9.35;54.03
59104;BME280;51449;51.676;5.812;2023-03-03T15:45:32;102433.88;;;9.32;54.38
59104;BME280;51449;51.676;5.812;2023-03-03T15:50:56;102434.44;;;9.34;55.03
59104;BME280;51449;51.676;5.812;2023-03-03T15:59:49;102431.41;;;9.31;53.86
59104;BME280;51449;51.676;5.812;2023-03-03T16:02:23;102430.88;;;9.29;53.64
59104;BME280;51449;51.676;5.812;2023-03-03T16:05:00;102431.41;;;9.31;54.43